createdAt,value
2022-08-17T00:00:43.626Z,101140.97
2022-08-17T00:03:19.232Z,101134.44
2022-08-17T00:05:57.917Z,101134.81
2022-08-17T00:08:31.206Z,101139.91
2022-08-17T00:11:02.348Z,101137.38
2022-08-17T00:13:36.465Z,101143.13
2022-08-17T00:16:09.620Z,101144.59
2022-08-17T00:19:00.907Z,101144.78
2022-08-17T00:21:59.996Z,101146.38
2022-08-17T00:24:28.784Z,101145.13
2022-08-17T00:26:59.754Z,101142.38
2022-08-17T00:29:30.009Z,101138.41
2022-08-17T00:31:59.475Z,101147.75
2022-08-17T00:34:30.733Z,101132.41
2022-08-17T00:37:04.455Z,101138.84
2022-08-17T00:39:33.143Z,101129.53
2022-08-17T00:42:02.141Z,101135.44
2022-08-17T00:44:31.398Z,101123.88
2022-08-17T00:47:00.944Z,101123.28
2022-08-17T00:49:31.607Z,101130.91
2022-08-17T00:52:12.056Z,101132.63
2022-08-17T00:54:46.220Z,101136.97
2022-08-17T00:57:19.602Z,101136.69
2022-08-17T01:00:03.362Z,101125.28
2022-08-17T01:02:41.880Z,101118.41
2022-08-17T01:05:20.863Z,101119.75
2022-08-17T01:07:57.572Z,101115.78
2022-08-17T01:10:58.556Z,101116.63
2022-08-17T01:13:40.380Z,101113.22
2022-08-17T01:16:22.818Z,101105.78
2022-08-17T01:18:56.472Z,101100.00
2022-08-17T01:21:37.807Z,101101.41
2022-08-17T01:24:09.939Z,101108.03
2022-08-17T01:26:41.063Z,101102.44
2022-08-17T01:29:11.105Z,101113.63
2022-08-17T01:31:45.186Z,101111.56
2022-08-17T01:34:19.226Z,101112.97
2022-08-17T01:36:51.155Z,101116.94
2022-08-17T01:39:36.602Z,101118.75
2022-08-17T01:42:15.077Z,101119.06
2022-08-17T01:44:45.151Z,101113.28
2022-08-17T01:47:15.213Z,101118.75
2022-08-17T01:49:44.480Z,101119.13
2022-08-17T01:52:14.427Z,101107.13
2022-08-17T01:54:48.254Z,101110.81
2022-08-17T01:57:20.015Z,101109.38
2022-08-17T01:59:49.341Z,101115.72
2022-08-17T02:02:30.945Z,101108.41
2022-08-17T02:05:00.598Z,101103.47
2022-08-17T02:07:32.111Z,101106.81
2022-08-17T02:10:23.146Z,101091.94
2022-08-17T02:12:51.771Z,101091.00
2022-08-17T02:15:21.153Z,101094.66
2022-08-17T02:17:57.518Z,101089.31
2022-08-17T02:20:41.366Z,101101.91
2022-08-17T02:23:14.449Z,101103.00
2022-08-17T02:25:49.318Z,101101.47
2022-08-17T02:28:19.473Z,101099.47
2022-08-17T02:31:00.039Z,101100.25
2022-08-17T02:33:42.047Z,101120.41
2022-08-17T02:36:13.393Z,101134.38
2022-08-17T02:38:44.861Z,101165.59
2022-08-17T02:41:16.581Z,101191.88
2022-08-17T02:43:45.796Z,101216.34
2022-08-17T02:46:14.685Z,101219.22
2022-08-17T02:48:45.754Z,101218.25
2022-08-17T02:51:14.903Z,101229.44
2022-08-17T02:53:46.884Z,101241.44
2022-08-17T02:56:16.916Z,101230.66
2022-08-17T02:58:47.924Z,101236.69
2022-08-17T03:01:18.868Z,101243.31
2022-08-17T03:03:48.062Z,101229.47
2022-08-17T03:06:17.225Z,101210.56
2022-08-17T03:08:45.639Z,101225.88
2022-08-17T03:11:15.397Z,101230.13
2022-08-17T03:13:46.659Z,101220.22
2022-08-17T03:16:15.911Z,101202.91
2022-08-17T03:18:45.320Z,101175.81
2022-08-17T03:21:14.751Z,101346.28
2022-08-17T03:23:44.617Z,101245.44
2022-08-17T03:26:16.302Z,101219.09
2022-08-17T03:28:46.822Z,101213.59
2022-08-17T03:31:15.479Z,101220.38
2022-08-17T03:33:45.763Z,101230.34
2022-08-17T03:36:14.302Z,101235.28
2022-08-17T03:38:44.330Z,101244.72
2022-08-17T03:41:14.411Z,101236.31
2022-08-17T03:43:43.508Z,101232.84
2022-08-17T03:46:35.088Z,101259.72
2022-08-17T03:49:26.244Z,101279.06
2022-08-17T03:52:14.685Z,101274.63
2022-08-17T03:55:02.258Z,101267.59
2022-08-17T03:57:40.353Z,101269.78
2022-08-17T04:00:11.264Z,101275.63
2022-08-17T04:02:45.377Z,101287.47
2022-08-17T04:05:16.109Z,101293.94
2022-08-17T04:07:46.229Z,101289.91
2022-08-17T04:10:15.758Z,101290.91
2022-08-17T04:12:50.327Z,101292.63
2022-08-17T04:15:19.771Z,101291.69
2022-08-17T04:17:49.727Z,101294.63
2022-08-17T04:20:22.189Z,101279.94
2022-08-17T04:23:00.044Z,101268.13
2022-08-17T04:25:30.255Z,101273.84
2022-08-17T04:28:01.706Z,101274.31
2022-08-17T04:30:33.290Z,101268.53
2022-08-17T04:33:08.580Z,101268.44
2022-08-17T04:35:41.265Z,101275.94
2022-08-17T04:38:14.981Z,101265.97
2022-08-17T04:41:02.335Z,101260.72
2022-08-17T04:43:37.502Z,101259.94
2022-08-17T04:46:11.342Z,101262.81
2022-08-17T04:48:46.077Z,101253.22
2022-08-17T04:51:18.442Z,101250.91
2022-08-17T04:53:54.240Z,101240.56
2022-08-17T04:56:25.152Z,101249.50
2022-08-17T04:58:57.410Z,101251.25
2022-08-17T05:01:30.281Z,101246.66
2022-08-17T05:04:33.053Z,101243.97
2022-08-17T05:06:55.669Z,101248.06
2022-08-17T05:09:26.251Z,101258.19
2022-08-17T05:12:03.272Z,101264.22
2022-08-17T05:14:33.661Z,101264.47
2022-08-17T05:17:07.467Z,101276.94
2022-08-17T05:19:43.163Z,101285.31
2022-08-17T05:22:12.203Z,101287.63
2022-08-17T05:24:43.582Z,101282.75
2022-08-17T05:27:23.431Z,101265.38
2022-08-17T05:29:52.335Z,101254.16
2022-08-17T05:32:37.360Z,101257.63
2022-08-17T05:35:12.068Z,101246.28
2022-08-17T05:37:40.746Z,101245.56
2022-08-17T05:40:11.651Z,101245.56
2022-08-17T05:42:40.412Z,101248.34
2022-08-17T05:45:11.700Z,101255.97
2022-08-17T05:47:41.553Z,101252.06
2022-08-17T05:50:27.121Z,101252.50
2022-08-17T05:53:13.678Z,101245.13
2022-08-17T05:55:57.967Z,101249.84
2022-08-17T05:58:33.992Z,101255.63
2022-08-17T06:01:11.245Z,101236.78
2022-08-17T06:03:51.537Z,101243.41
2022-08-17T06:06:39.812Z,101239.28
2022-08-17T06:09:33.696Z,101244.75
2022-08-17T06:12:21.794Z,101246.16
2022-08-17T06:15:10.701Z,101245.75
2022-08-17T06:17:40.822Z,101244.34
2022-08-17T06:20:15.039Z,101250.06
2022-08-17T06:22:51.458Z,101246.06
2022-08-17T06:25:33.409Z,101232.56
2022-08-17T06:28:07.695Z,101227.31
2022-08-17T06:31:00.040Z,101213.25
2022-08-17T06:33:34.980Z,101222.97
2022-08-17T06:36:19.385Z,101237.25
2022-08-17T06:39:01.180Z,101246.38
2022-08-17T06:41:43.212Z,101249.06
2022-08-17T06:44:42.172Z,101238.47
2022-08-17T06:47:14.094Z,101244.00
2022-08-17T06:50:15.528Z,101237.03
2022-08-17T06:52:55.368Z,101236.81
2022-08-17T06:55:37.859Z,101238.09
2022-08-17T06:58:15.902Z,101235.47
2022-08-17T07:00:55.392Z,101252.53
2022-08-17T07:03:41.130Z,101253.03
2022-08-17T07:06:17.175Z,101265.50
2022-08-17T07:08:59.169Z,101285.25
2022-08-17T07:11:39.410Z,101284.59
2022-08-17T07:14:24.649Z,101275.25
2022-08-17T07:16:58.083Z,101277.81
2022-08-17T07:19:32.945Z,101279.34
2022-08-17T07:22:14.881Z,101278.16
2022-08-17T07:24:52.062Z,101270.47
2022-08-17T07:27:25.159Z,101259.59
2022-08-17T07:30:03.742Z,101261.81
2022-08-17T07:32:43.611Z,101256.91
2022-08-17T07:35:20.026Z,101261.31
2022-08-17T07:37:57.296Z,101264.81
2022-08-17T07:40:35.177Z,101280.50
2022-08-17T07:43:22.343Z,101283.16
2022-08-17T07:46:35.778Z,101293.50
2022-08-17T07:49:36.861Z,101298.91
2022-08-17T07:52:24.303Z,101300.75
2022-08-17T07:54:59.726Z,101295.28
2022-08-17T07:57:37.760Z,101305.25
2022-08-17T08:00:27.277Z,101304.78
2022-08-17T08:03:19.080Z,101308.56
2022-08-17T08:06:01.732Z,101316.44
2022-08-17T08:08:38.716Z,101315.19
2022-08-17T08:11:12.117Z,101304.81
2022-08-17T08:13:45.658Z,101305.09
2022-08-17T08:16:27.378Z,101303.13
2022-08-17T08:19:00.319Z,101303.75
2022-08-17T08:22:08.564Z,101316.06
2022-08-17T08:25:01.829Z,101309.75
2022-08-17T08:27:45.854Z,101292.38
2022-08-17T08:30:18.926Z,101291.06
2022-08-17T08:33:20.196Z,101291.88
2022-08-17T08:35:55.745Z,101306.50
2022-08-17T08:38:40.755Z,101301.72
2022-08-17T08:41:35.115Z,101299.56
2022-08-17T08:45:01.096Z,101309.16
2022-08-17T08:47:29.581Z,101313.00
2022-08-17T08:50:37.981Z,101317.72
2022-08-17T08:53:34.021Z,101307.44
2022-08-17T08:56:11.896Z,101304.25
2022-08-17T08:58:54.945Z,101295.88
2022-08-17T09:01:32.563Z,101292.97
2022-08-17T09:04:24.751Z,101294.38
2022-08-17T09:07:10.500Z,101286.41
2022-08-17T09:09:52.693Z,101280.13
2022-08-17T09:12:35.319Z,101277.38
2022-08-17T09:15:14.564Z,101288.75
2022-08-17T09:18:39.606Z,101298.53
2022-08-17T09:20:59.561Z,101301.34
2022-08-17T09:23:38.424Z,101306.53
2022-08-17T09:26:17.361Z,101316.28
2022-08-17T09:28:53.574Z,101328.44
2022-08-17T09:31:31.279Z,101328.34
2022-08-17T09:34:04.913Z,101329.03
2022-08-17T09:36:45.212Z,101327.19
2022-08-17T09:39:21.218Z,101308.44
2022-08-17T09:42:07.303Z,101301.44
2022-08-17T09:44:44.076Z,101298.34
2022-08-17T09:47:22.505Z,101294.69
2022-08-17T09:49:58.853Z,101285.81
2022-08-17T09:52:31.230Z,101280.72
2022-08-17T09:55:02.876Z,101278.38
2022-08-17T09:57:53.280Z,101284.47
2022-08-17T10:00:27.809Z,101301.00
2022-08-17T10:03:30.686Z,101355.78
2022-08-17T10:06:10.942Z,101396.69
2022-08-17T10:08:52.635Z,101426.97
2022-08-17T10:12:09.263Z,101445.41
2022-08-17T10:14:44.950Z,101422.94
2022-08-17T10:17:35.115Z,101383.69
2022-08-17T10:20:15.657Z,101370.94
2022-08-17T10:23:08.865Z,101339.09
2022-08-17T10:26:02.464Z,101324.41
2022-08-17T10:28:43.503Z,101323.28
2022-08-17T10:31:40.802Z,101320.28
2022-08-17T10:34:36.147Z,101301.69
2022-08-17T10:37:40.642Z,101307.56
2022-08-17T10:40:35.570Z,101314.19
2022-08-17T10:43:31.062Z,101304.97
2022-08-17T10:46:30.417Z,101301.38
2022-08-17T10:49:26.197Z,101320.72
2022-08-17T10:51:58.671Z,101319.03
2022-08-17T10:54:47.845Z,101321.94
2022-08-17T10:57:42.085Z,101306.19
2022-08-17T11:00:16.998Z,101325.53
2022-08-17T11:02:52.706Z,101321.03
2022-08-17T11:05:58.860Z,101331.38
2022-08-17T11:09:24.725Z,101326.53
2022-08-17T11:12:10.502Z,101320.97
2022-08-17T11:15:00.604Z,101309.50
2022-08-17T11:18:02.916Z,101322.00
2022-08-17T11:21:02.202Z,101329.81
2022-08-17T11:24:20.555Z,101326.34
2022-08-17T11:27:12.152Z,101318.41
2022-08-17T11:30:01.881Z,101327.16
2022-08-17T11:32:47.431Z,101327.75
2022-08-17T11:35:40.794Z,101336.69
2022-08-17T11:38:25.821Z,101347.09
2022-08-17T11:41:19.971Z,101356.78
2022-08-17T11:44:22.933Z,101354.06
2022-08-17T11:47:28.687Z,101351.16
2022-08-17T11:50:52.696Z,101370.13
2022-08-17T11:54:34.102Z,101394.03
2022-08-17T11:58:00.397Z,101424.44
2022-08-17T12:00:57.139Z,101424.72
2022-08-17T12:03:55.614Z,101427.28
2022-08-17T12:06:50.235Z,101430.25
2022-08-17T12:09:24.638Z,101427.69
2022-08-17T12:12:13.374Z,101430.91
2022-08-17T12:17:48.498Z,101445.63
2022-08-17T12:20:27.858Z,101455.75
2022-08-17T12:23:07.515Z,101447.91
2022-08-17T12:25:43.791Z,101447.69
2022-08-17T12:28:25.895Z,101451.81
2022-08-17T12:31:01.113Z,101433.28
2022-08-17T12:33:30.851Z,101414.88
2022-08-17T12:36:06.290Z,101400.25
2022-08-17T12:38:39.325Z,101397.72
2022-08-17T12:41:29.343Z,101395.00
2022-08-17T12:44:02.310Z,101414.78
2022-08-17T12:46:46.445Z,101430.00
2022-08-17T12:49:23.516Z,101435.47
2022-08-17T12:52:02.408Z,101432.81
2022-08-17T12:54:41.813Z,101432.50
2022-08-17T12:57:17.164Z,101427.66
2022-08-17T12:59:49.027Z,101418.97
2022-08-17T13:03:00.274Z,101429.22
2022-08-17T13:05:36.681Z,101416.53
2022-08-17T13:08:17.550Z,101420.34
2022-08-17T13:11:00.509Z,101413.38
2022-08-17T13:13:33.569Z,101428.16
2022-08-17T13:16:06.184Z,101412.78
2022-08-17T13:18:43.817Z,101410.22
2022-08-17T13:21:27.959Z,101416.78
2022-08-17T13:24:02.504Z,101422.44
2022-08-17T13:26:35.479Z,101422.19
2022-08-17T13:29:08.066Z,101404.53
2022-08-17T13:31:52.076Z,101389.06
2022-08-17T13:35:11.972Z,101385.00
2022-08-17T13:37:36.191Z,101375.09
2022-08-17T13:40:33.920Z,101378.59
2022-08-17T13:43:03.441Z,101385.97
2022-08-17T13:45:43.576Z,101379.41
2022-08-17T13:48:23.626Z,101379.63
2022-08-17T13:51:34.912Z,101390.94
2022-08-17T13:54:21.983Z,101376.00
2022-08-17T13:57:00.126Z,101397.00
2022-08-17T13:59:54.300Z,101386.75
2022-08-17T14:02:27.513Z,101396.16
2022-08-17T14:05:06.375Z,101395.84
2022-08-17T14:07:40.133Z,101390.34
2022-08-17T14:10:15.171Z,101399.06
2022-08-17T14:12:50.537Z,101381.44
2022-08-17T14:15:55.427Z,101372.63
2022-08-17T14:18:17.786Z,101365.97
2022-08-17T14:20:46.679Z,101364.50
2022-08-17T14:23:18.961Z,101357.88
2022-08-17T14:25:48.103Z,101357.09
2022-08-17T14:28:17.202Z,101354.63
2022-08-17T14:30:46.323Z,101348.53
2022-08-17T14:33:15.185Z,101359.38
2022-08-17T14:35:44.180Z,101360.69
2022-08-17T14:38:15.871Z,101351.34
2022-08-17T14:40:44.678Z,101356.88
2022-08-17T14:43:13.701Z,101340.31
2022-08-17T14:45:42.749Z,101350.84
2022-08-17T14:48:11.727Z,101355.06
2022-08-17T14:50:47.193Z,101342.94
2022-08-17T14:53:21.735Z,101346.47
2022-08-17T14:55:52.296Z,101340.38
2022-08-17T14:58:21.372Z,101342.97
2022-08-17T15:00:50.964Z,101342.97
2022-08-17T15:03:20.854Z,101347.34
2022-08-17T15:05:51.364Z,101362.41
2022-08-17T15:08:22.004Z,101338.97
2022-08-17T15:10:54.193Z,101340.16
2022-08-17T15:13:27.208Z,101336.41
2022-08-17T15:15:56.777Z,101332.97
2022-08-17T15:18:25.862Z,101329.13
2022-08-17T15:20:54.782Z,101327.59
2022-08-17T15:23:28.572Z,101321.81
2022-08-17T15:25:57.338Z,101317.88
2022-08-17T15:28:26.517Z,101326.97
2022-08-17T15:30:56.134Z,101326.53
2022-08-17T15:33:30.152Z,101323.66
2022-08-17T15:36:06.217Z,101325.16
2022-08-17T15:38:39.465Z,101323.31
2022-08-17T15:41:10.939Z,101322.28
2022-08-17T15:43:39.636Z,101314.00
2022-08-17T15:46:12.725Z,101317.66
2022-08-17T15:48:45.009Z,101313.19
2022-08-17T15:51:17.049Z,101320.81
2022-08-17T15:53:51.623Z,101317.91
2022-08-17T15:56:23.505Z,101301.81
2022-08-17T15:58:54.025Z,101301.31
2022-08-17T16:02:20.021Z,101306.97
2022-08-17T16:04:26.765Z,101300.28
2022-08-17T16:07:01.212Z,101282.13
2022-08-17T16:09:31.409Z,101280.53
2022-08-17T16:12:09.240Z,101277.25
2022-08-17T16:14:39.494Z,101274.91
2022-08-17T16:17:38.325Z,101274.84
2022-08-17T16:19:58.703Z,101289.69
2022-08-17T16:22:35.280Z,101295.13
2022-08-17T16:25:12.044Z,101290.03
2022-08-17T16:27:41.027Z,101296.09
2022-08-17T16:30:17.027Z,101290.94
2022-08-17T16:32:51.942Z,101297.72
2022-08-17T16:35:25.100Z,101299.44
2022-08-17T16:37:55.690Z,101286.94
2022-08-17T16:40:36.141Z,101307.16
2022-08-17T16:43:10.822Z,101313.97
2022-08-17T16:45:40.952Z,101315.00
2022-08-17T16:48:12.609Z,101321.16
2022-08-17T16:50:42.613Z,101331.97
2022-08-17T16:53:31.743Z,101325.63
2022-08-17T16:56:02.516Z,101332.19
2022-08-17T16:58:31.226Z,101329.22
2022-08-17T17:01:02.975Z,101328.91
2022-08-17T17:03:33.235Z,101335.50
2022-08-17T17:06:13.903Z,101342.81
2022-08-17T17:08:48.590Z,101344.81
2022-08-17T17:11:28.162Z,101345.25
2022-08-17T17:14:02.286Z,101342.19
2022-08-17T17:16:41.766Z,101339.63
2022-08-17T17:19:35.380Z,101335.84
2022-08-17T17:22:15.392Z,101342.13
2022-08-17T17:25:06.354Z,101330.06
2022-08-17T17:27:49.747Z,101331.72
2022-08-17T17:30:27.200Z,101333.25
2022-08-17T17:33:11.657Z,101338.34
2022-08-17T17:35:49.512Z,101333.50
2022-08-17T17:38:29.192Z,101329.88
2022-08-17T17:41:05.612Z,101326.41
2022-08-17T17:43:39.795Z,101337.41
2022-08-17T17:46:27.723Z,101341.41
2022-08-17T17:48:58.428Z,101339.78
2022-08-17T17:52:06.327Z,101340.91
2022-08-17T17:55:00.448Z,101360.31
2022-08-17T17:57:45.338Z,101354.03
2022-08-17T18:00:23.313Z,101363.00
2022-08-17T18:03:11.069Z,101365.31
2022-08-17T18:05:56.429Z,101373.41
2022-08-17T18:08:45.763Z,101365.38
2022-08-17T18:11:33.070Z,101371.91
2022-08-17T18:14:17.418Z,101383.28
2022-08-17T18:16:54.670Z,101393.81
2022-08-17T18:19:25.786Z,101403.66
2022-08-17T18:22:07.366Z,101398.47
2022-08-17T18:24:46.914Z,101397.41
2022-08-17T18:27:32.078Z,101396.53
2022-08-17T18:30:07.267Z,101385.47
2022-08-17T18:32:43.634Z,101387.22
2022-08-17T18:35:35.292Z,101388.78
2022-08-17T18:38:24.595Z,101384.84
2022-08-17T18:41:06.016Z,101383.06
2022-08-17T18:43:52.896Z,101389.63
2022-08-17T18:46:37.820Z,101397.06
2022-08-17T18:49:28.700Z,101397.63
2022-08-17T18:52:15.779Z,101400.13
2022-08-17T18:55:09.758Z,101399.50
2022-08-17T18:57:43.091Z,101402.47
2022-08-17T19:00:20.888Z,101413.88
2022-08-17T19:02:56.746Z,101411.28
2022-08-17T19:05:37.144Z,101411.22
2022-08-17T19:08:24.364Z,101406.38
2022-08-17T19:11:00.173Z,101397.59
2022-08-17T19:13:37.493Z,101402.53
2022-08-17T19:16:15.746Z,101399.59
2022-08-17T19:18:55.028Z,101404.34
2022-08-17T19:21:34.535Z,101411.72
2022-08-17T19:24:12.162Z,101413.31
2022-08-17T19:26:50.642Z,101417.19
2022-08-17T19:29:31.860Z,101423.28
2022-08-17T19:32:05.255Z,101429.84
2022-08-17T19:34:38.968Z,101427.28
2022-08-17T19:37:24.846Z,101430.53
2022-08-17T19:40:04.049Z,101438.25
2022-08-17T19:42:47.625Z,101438.84
2022-08-17T19:45:34.872Z,101452.47
2022-08-17T19:48:18.159Z,101455.38
2022-08-17T19:50:56.682Z,101454.53
2022-08-17T19:54:04.326Z,101452.22
2022-08-17T19:56:47.731Z,101455.31
2022-08-17T19:59:28.474Z,101442.78
2022-08-17T20:02:22.166Z,101456.03
2022-08-17T20:04:55.671Z,101459.91
2022-08-17T20:07:30.466Z,101445.66
2022-08-17T20:10:09.389Z,101456.44
2022-08-17T20:12:44.691Z,101447.34
2022-08-17T20:15:19.144Z,101454.34
2022-08-17T20:17:49.655Z,101449.22
2022-08-17T20:20:29.848Z,101446.38
2022-08-17T20:23:06.537Z,101438.13
2022-08-17T20:25:55.998Z,101449.59
2022-08-17T20:28:29.587Z,101444.81
2022-08-17T20:30:59.967Z,101445.28
2022-08-17T20:33:34.375Z,101446.41
2022-08-17T20:36:21.064Z,101432.00
2022-08-17T20:38:56.980Z,101435.38
2022-08-17T20:41:31.162Z,101424.53
2022-08-17T20:44:33.534Z,101432.84
2022-08-17T20:47:11.295Z,101436.81
2022-08-17T20:49:53.623Z,101431.09
2022-08-17T20:52:51.092Z,101431.09
2022-08-17T20:55:54.931Z,101430.63
2022-08-17T20:58:56.773Z,101429.84
2022-08-17T21:01:40.826Z,101427.38
2022-08-17T21:04:47.720Z,101428.88
2022-08-17T21:07:41.116Z,101429.00
2022-08-17T21:10:18.189Z,101430.56
2022-08-17T21:12:54.657Z,101431.56
2022-08-17T21:15:37.691Z,101433.03
2022-08-17T21:18:16.998Z,101433.16
2022-08-17T21:21:07.757Z,101438.19
2022-08-17T21:24:03.207Z,101430.97
2022-08-17T21:26:50.286Z,101429.28
2022-08-17T21:29:31.488Z,101440.50
2022-08-17T21:32:24.617Z,101436.88
2022-08-17T21:35:28.517Z,101444.34
2022-08-17T21:38:05.198Z,101455.34
2022-08-17T21:40:36.385Z,101454.38
2022-08-17T21:43:33.843Z,101456.28
2022-08-17T21:46:06.317Z,101464.72
2022-08-17T21:48:48.339Z,101469.63
2022-08-17T21:51:23.624Z,101467.88
2022-08-17T21:53:57.758Z,101469.88
2022-08-17T21:56:32.293Z,101473.63
2022-08-17T21:59:05.793Z,101478.47
2022-08-17T22:01:36.775Z,101473.31
2022-08-17T22:04:22.515Z,101485.53
2022-08-17T22:06:57.663Z,101480.22
2022-08-17T22:09:31.854Z,101481.59
2022-08-17T22:12:12.227Z,101488.56
2022-08-17T22:14:53.164Z,101482.75
2022-08-17T22:17:26.719Z,101486.34
2022-08-17T22:20:03.257Z,101480.72
2022-08-17T22:22:56.933Z,101498.41
2022-08-17T22:25:29.734Z,101492.06
2022-08-17T22:28:04.343Z,101496.38
2022-08-17T22:30:37.745Z,101495.53
2022-08-17T22:33:37.459Z,101492.06
2022-08-17T22:36:25.720Z,101503.84
2022-08-17T22:38:58.783Z,101499.41
2022-08-17T22:41:43.443Z,101505.81
2022-08-17T22:44:31.791Z,101490.09
2022-08-17T22:47:11.421Z,101504.25
2022-08-17T22:49:54.193Z,101500.66
2022-08-17T22:52:58.055Z,101494.38
2022-08-17T22:55:46.426Z,101491.81
2022-08-17T22:58:37.144Z,101489.78
2022-08-17T23:01:28.264Z,101491.03
2022-08-17T23:04:01.724Z,101500.25
2022-08-17T23:06:32.665Z,101503.09
2022-08-17T23:09:07.507Z,101502.81
2022-08-17T23:11:49.089Z,101504.09
2022-08-17T23:14:21.224Z,101498.22
2022-08-17T23:16:52.155Z,101492.78
2022-08-17T23:19:24.139Z,101488.59
2022-08-17T23:21:55.182Z,101487.19
2022-08-17T23:24:29.403Z,101484.59
2022-08-17T23:26:59.808Z,101495.75
2022-08-17T23:29:29.586Z,101490.34
2022-08-17T23:32:01.281Z,101490.19
2022-08-17T23:34:33.529Z,101492.63
2022-08-17T23:37:04.435Z,101494.06
2022-08-17T23:39:35.017Z,101482.75
2022-08-17T23:42:10.900Z,101478.00
2022-08-17T23:44:44.044Z,101485.19
2022-08-17T23:47:13.179Z,101476.84
2022-08-17T23:49:42.543Z,101484.59
2022-08-17T23:52:17.072Z,101486.47
2022-08-17T23:54:50.261Z,101490.91
2022-08-17T23:57:33.733Z,101496.78
